Terminal Aerodrome Forecast
Issued by NWS

Home | Current Version | Previous Version | Text Only | Print | Product List | Glossary On
Versions: 1 2 3 4 5 6 7 8 9 10 11 12 13 14 15 16 17 18 19 20 21 22 23 24 25 26
816
FTUS43 KLSX 230226 AAA
TAFSUS
TAF AMD
KSUS 230226Z 2302/2324 VRB03KT 3SM -RA BR OVC005
     FM230300 11005KT 2SM -RA BR OVC008
     FM230800 17004KT 2SM -RA BR OVC005
     FM232000 29004KT P6SM BKN020=

USA.gov is the U.S. government's official web portal to all federal, state and local government web resources and services.